sensor_id;sensor_type;location;lat;lon;timestamp;P1;durP1;ratioP1;P2;durP2;ratioP2
68989;SDS011;56046;47.270;11.368;2023-06-26T00:01:31;9.63;;;4.97;;
68989;SDS011;56046;47.270;11.368;2023-06-26T00:03:57;7.93;;;4.20;;
68989;SDS011;56046;47.270;11.368;2023-06-26T00:06:22;7.90;;;4.70;;
68989;SDS011;56046;47.270;11.368;2023-06-26T00:08:49;9.83;;;4.97;;
68989;SDS011;56046;47.270;11.368;2023-06-26T00:11:15;10.82;;;5.03;;
68989;SDS011;56046;47.270;11.368;2023-06-26T00:13:40;8.90;;;4.57;;
68989;SDS011;56046;47.270;11.368;2023-06-26T00:16:05;9.07;;;4.90;;
68989;SDS011;56046;47.270;11.368;2023-06-26T00:18:30;9.87;;;4.80;;
68989;SDS011;56046;47.270;11.368;2023-06-26T00:20:56;10.43;;;5.20;;
68989;SDS011;56046;47.270;11.368;2023-06-26T00:23:21;9.70;;;4.90;;
68989;SDS011;56046;47.270;11.368;2023-06-26T00:25:46;9.57;;;4.97;;
68989;SDS011;56046;47.270;11.368;2023-06-26T00:28:11;8.63;;;4.50;;
68989;SDS011;56046;47.270;11.368;2023-06-26T00:30:37;8.77;;;4.90;;
68989;SDS011;56046;47.270;11.368;2023-06-26T00:33:02;9.37;;;5.07;;
68989;SDS011;56046;47.270;11.368;2023-06-26T00:35:27;9.57;;;4.77;;
68989;SDS011;56046;47.270;11.368;2023-06-26T00:37:53;9.17;;;4.83;;
68989;SDS011;56046;47.270;11.368;2023-06-26T00:40:18;9.30;;;5.23;;
68989;SDS011;56046;47.270;11.368;2023-06-26T00:42:43;9.43;;;5.07;;
68989;SDS011;56046;47.270;11.368;2023-06-26T00:45:09;8.77;;;4.50;;
68989;SDS011;56046;47.270;11.368;2023-06-26T00:47:34;9.30;;;5.10;;
68989;SDS011;56046;47.270;11.368;2023-06-26T00:49:59;9.83;;;5.53;;
68989;SDS011;56046;47.270;11.368;2023-06-26T00:52:24;8.90;;;4.93;;
68989;SDS011;56046;47.270;11.368;2023-06-26T00:54:50;8.65;;;4.72;;
68989;SDS011;56046;47.270;11.368;2023-06-26T00:57:16;11.45;;;5.20;;
68989;SDS011;56046;47.270;11.368;2023-06-26T00:59:41;9.80;;;4.80;;
68989;SDS011;56046;47.270;11.368;2023-06-26T01:02:07;10.07;;;5.10;;
68989;SDS011;56046;47.270;11.368;2023-06-26T01:04:32;9.40;;;4.53;;
68989;SDS011;56046;47.270;11.368;2023-06-26T01:06:58;8.73;;;4.87;;
68989;SDS011;56046;47.270;11.368;2023-06-26T01:09:24;11.77;;;4.95;;
68989;SDS011;56046;47.270;11.368;2023-06-26T01:11:49;8.90;;;5.25;;
68989;SDS011;56046;47.270;11.368;2023-06-26T01:14:15;9.63;;;5.30;;
68989;SDS011;56046;47.270;11.368;2023-06-26T01:16:40;8.97;;;5.13;;
68989;SDS011;56046;47.270;11.368;2023-06-26T01:19:09;8.95;;;5.00;;
68989;SDS011;56046;47.270;11.368;2023-06-26T01:21:35;9.73;;;4.67;;
68989;SDS011;56046;47.270;11.368;2023-06-26T01:24:07;8.80;;;4.78;;
68989;SDS011;56046;47.270;11.368;2023-06-26T01:26:35;9.70;;;5.13;;
68989;SDS011;56046;47.270;11.368;2023-06-26T01:29:02;9.43;;;5.10;;
68989;SDS011;56046;47.270;11.368;2023-06-26T01:31:28;10.07;;;5.35;;
68989;SDS011;56046;47.270;11.368;2023-06-26T01:33:55;9.40;;;4.83;;
68989;SDS011;56046;47.270;11.368;2023-06-26T01:36:21;9.80;;;4.45;;
68989;SDS011;56046;47.270;11.368;2023-06-26T01:38:47;8.63;;;5.07;;
68989;SDS011;56046;47.270;11.368;2023-06-26T01:41:12;10.53;;;4.90;;
68989;SDS011;56046;47.270;11.368;2023-06-26T01:46:09;8.23;;;4.60;;
68989;SDS011;56046;47.270;11.368;2023-06-26T01:48:47;10.13;;;4.63;;
68989;SDS011;56046;47.270;11.368;2023-06-26T01:51:14;9.82;;;4.95;;
68989;SDS011;56046;47.270;11.368;2023-06-26T01:53:44;10.88;;;5.47;;
68989;SDS011;56046;47.270;11.368;2023-06-26T01:56:15;9.90;;;5.18;;
68989;SDS011;56046;47.270;11.368;2023-06-26T01:58:45;8.30;;;4.47;;
68989;SDS011;56046;47.270;11.368;2023-06-26T02:01:10;9.98;;;4.93;;
68989;SDS011;56046;47.270;11.368;2023-06-26T02:03:36;8.95;;;4.40;;
68989;SDS011;56046;47.270;11.368;2023-06-26T02:06:01;10.53;;;5.30;;
68989;SDS011;56046;47.270;11.368;2023-06-26T02:08:26;10.17;;;5.10;;
68989;SDS011;56046;47.270;11.368;2023-06-26T02:10:52;9.30;;;4.80;;
68989;SDS011;56046;47.270;11.368;2023-06-26T02:13:17;8.67;;;4.63;;
68989;SDS011;56046;47.270;11.368;2023-06-26T02:15:42;10.27;;;4.60;;
68989;SDS011;56046;47.270;11.368;2023-06-26T02:18:08;9.10;;;4.90;;
68989;SDS011;56046;47.270;11.368;2023-06-26T02:20:33;9.17;;;4.60;;
68989;SDS011;56046;47.270;11.368;2023-06-26T02:22:58;9.45;;;4.85;;
68989;SDS011;56046;47.270;11.368;2023-06-26T02:25:23;8.63;;;4.97;;
68989;SDS011;56046;47.270;11.368;2023-06-26T02:27:49;9.03;;;4.60;;
68989;SDS011;56046;47.270;11.368;2023-06-26T02:30:14;9.67;;;5.43;;
68989;SDS011;56046;47.270;11.368;2023-06-26T02:32:39;9.13;;;4.77;;
68989;SDS011;56046;47.270;11.368;2023-06-26T02:35:04;9.37;;;5.00;;
68989;SDS011;56046;47.270;11.368;2023-06-26T02:37:30;10.23;;;5.27;;
68989;SDS011;56046;47.270;11.368;2023-06-26T02:39:55;10.97;;;4.57;;
68989;SDS011;56046;47.270;11.368;2023-06-26T02:42:20;8.93;;;4.87;;
68989;SDS011;56046;47.270;11.368;2023-06-26T02:44:46;8.97;;;5.10;;
68989;SDS011;56046;47.270;11.368;2023-06-26T02:47:11;9.67;;;4.70;;
68989;SDS011;56046;47.270;11.368;2023-06-26T02:49:36;11.23;;;5.23;;
68989;SDS011;56046;47.270;11.368;2023-06-26T02:52:01;8.73;;;4.90;;
68989;SDS011;56046;47.270;11.368;2023-06-26T02:54:26;9.90;;;4.80;;
68989;SDS011;56046;47.270;11.368;2023-06-26T02:56:52;9.27;;;5.27;;
68989;SDS011;56046;47.270;11.368;2023-06-26T02:59:17;9.13;;;4.90;;
68989;SDS011;56046;47.270;11.368;2023-06-26T03:01:43;10.13;;;4.87;;
68989;SDS011;56046;47.270;11.368;2023-06-26T03:04:08;8.73;;;4.80;;
68989;SDS011;56046;47.270;11.368;2023-06-26T03:06:34;9.93;;;5.05;;
68989;SDS011;56046;47.270;11.368;2023-06-26T03:08:59;10.53;;;5.40;;
68989;SDS011;56046;47.270;11.368;2023-06-26T03:11:24;8.80;;;4.53;;
68989;SDS011;56046;47.270;11.368;2023-06-26T03:13:49;12.50;;;5.40;;
68989;SDS011;56046;47.270;11.368;2023-06-26T03:16:15;9.33;;;5.20;;
68989;SDS011;56046;47.270;11.368;2023-06-26T03:18:40;9.87;;;5.07;;
68989;SDS011;56046;47.270;11.368;2023-06-26T03:21:06;9.07;;;5.00;;
68989;SDS011;56046;47.270;11.368;2023-06-26T03:23:31;9.60;;;4.35;;
68989;SDS011;56046;47.270;11.368;2023-06-26T03:25:56;10.07;;;5.00;;
68989;SDS011;56046;47.270;11.368;2023-06-26T03:28:21;10.97;;;4.70;;
68989;SDS011;56046;47.270;11.368;2023-06-26T03:30:47;9.27;;;4.70;;
68989;SDS011;56046;47.270;11.368;2023-06-26T03:33:12;10.87;;;5.03;;
68989;SDS011;56046;47.270;11.368;2023-06-26T03:35:37;11.97;;;5.47;;
68989;SDS011;56046;47.270;11.368;2023-06-26T03:38:03;9.30;;;4.70;;
68989;SDS011;56046;47.270;11.368;2023-06-26T03:40:29;9.85;;;4.75;;
68989;SDS011;56046;47.270;11.368;2023-06-26T03:42:54;8.33;;;4.60;;
68989;SDS011;56046;47.270;11.368;2023-06-26T03:45:19;10.37;;;4.93;;
68989;SDS011;56046;47.270;11.368;2023-06-26T03:47:45;14.50;;;5.73;;
68989;SDS011;56046;47.270;11.368;2023-06-26T03:50:12;9.88;;;5.40;;
68989;SDS011;56046;47.270;11.368;2023-06-26T03:52:37;10.13;;;4.80;;
68989;SDS011;56046;47.270;11.368;2023-06-26T03:55:03;11.20;;;5.40;;
68989;SDS011;56046;47.270;11.368;2023-06-26T03:57:28;8.43;;;4.60;;
68989;SDS011;56046;47.270;11.368;2023-06-26T03:59:53;10.23;;;5.03;;
68989;SDS011;56046;47.270;11.368;2023-06-26T04:02:18;8.97;;;5.10;;
68989;SDS011;56046;47.270;11.368;2023-06-26T04:04:44;9.70;;;4.87;;
68989;SDS011;56046;47.270;11.368;2023-06-26T04:07:09;9.70;;;4.95;;
68989;SDS011;56046;47.270;11.368;2023-06-26T04:09:35;9.77;;;5.47;;
68989;SDS011;56046;47.270;11.368;2023-06-26T04:12:00;10.00;;;5.40;;
68989;SDS011;56046;47.270;11.368;2023-06-26T04:14:25;11.80;;;5.57;;
68989;SDS011;56046;47.270;11.368;2023-06-26T04:16:50;10.53;;;5.80;;
68989;SDS011;56046;47.270;11.368;2023-06-26T04:19:16;8.57;;;5.37;;
68989;SDS011;56046;47.270;11.368;2023-06-26T04:21:41;11.13;;;5.63;;
68989;SDS011;56046;47.270;11.368;2023-06-26T04:24:06;9.90;;;5.27;;
68989;SDS011;56046;47.270;11.368;2023-06-26T04:26:31;10.37;;;5.27;;
68989;SDS011;56046;47.270;11.368;2023-06-26T04:28:57;10.80;;;5.45;;
68989;SDS011;56046;47.270;11.368;2023-06-26T04:31:22;10.77;;;5.37;;
68989;SDS011;56046;47.270;11.368;2023-06-26T04:33:48;10.93;;;5.40;;
68989;SDS011;56046;47.270;11.368;2023-06-26T04:36:16;10.55;;;5.63;;
68989;SDS011;56046;47.270;11.368;2023-06-26T04:38:41;9.43;;;5.63;;
68989;SDS011;56046;47.270;11.368;2023-06-26T04:41:06;10.67;;;6.00;;
68989;SDS011;56046;47.270;11.368;2023-06-26T04:43:32;10.77;;;6.07;;
68989;SDS011;56046;47.270;11.368;2023-06-26T04:45:57;9.83;;;5.73;;
68989;SDS011;56046;47.270;11.368;2023-06-26T04:48:22;9.30;;;5.23;;
68989;SDS011;56046;47.270;11.368;2023-06-26T04:50:47;10.53;;;6.00;;
68989;SDS011;56046;47.270;11.368;2023-06-26T04:53:18;11.50;;;5.63;;
68989;SDS011;56046;47.270;11.368;2023-06-26T04:55:43;9.80;;;5.27;;
68989;SDS011;56046;47.270;11.368;2023-06-26T04:58:09;10.40;;;5.50;;
68989;SDS011;56046;47.270;11.368;2023-06-26T05:00:34;11.20;;;5.77;;
68989;SDS011;56046;47.270;11.368;2023-06-26T05:03:01;10.48;;;5.60;;
68989;SDS011;56046;47.270;11.368;2023-06-26T05:05:29;9.90;;;5.47;;
68989;SDS011;56046;47.270;11.368;2023-06-26T05:07:55;9.70;;;5.40;;
68989;SDS011;56046;47.270;11.368;2023-06-26T05:10:20;10.93;;;5.73;;
68989;SDS011;56046;47.270;11.368;2023-06-26T05:12:45;9.80;;;5.57;;
68989;SDS011;56046;47.270;11.368;2023-06-26T05:15:11;10.67;;;5.67;;
68989;SDS011;56046;47.270;11.368;2023-06-26T05:17:36;11.20;;;6.03;;
68989;SDS011;56046;47.270;11.368;2023-06-26T05:20:01;9.83;;;5.60;;
68989;SDS011;56046;47.270;11.368;2023-06-26T05:22:28;13.65;;;6.10;;
68989;SDS011;56046;47.270;11.368;2023-06-26T05:24:54;14.80;;;5.70;;
68989;SDS011;56046;47.270;11.368;2023-06-26T05:27:20;15.48;;;6.00;;
68989;SDS011;56046;47.270;11.368;2023-06-26T05:29:47;13.23;;;5.80;;
68989;SDS011;56046;47.270;11.368;2023-06-26T05:32:12;10.25;;;5.70;;
68989;SDS011;56046;47.270;11.368;2023-06-26T05:34:39;10.85;;;5.82;;
68989;SDS011;56046;47.270;11.368;2023-06-26T05:37:05;11.40;;;6.23;;
68989;SDS011;56046;47.270;11.368;2023-06-26T05:39:31;13.48;;;5.95;;
68989;SDS011;56046;47.270;11.368;2023-06-26T05:41:57;11.60;;;6.40;;
68989;SDS011;56046;47.270;11.368;2023-06-26T05:44:23;12.40;;;6.88;;
68989;SDS011;56046;47.270;11.368;2023-06-26T05:46:48;12.47;;;6.93;;
68989;SDS011;56046;47.270;11.368;2023-06-26T05:49:13;12.10;;;7.07;;
68989;SDS011;56046;47.270;11.368;2023-06-26T05:51:39;11.20;;;6.60;;
68989;SDS011;56046;47.270;11.368;2023-06-26T05:54:04;10.25;;;6.22;;
68989;SDS011;56046;47.270;11.368;2023-06-26T05:56:29;10.87;;;6.87;;
68989;SDS011;56046;47.270;11.368;2023-06-26T05:58:55;12.52;;;7.18;;
68989;SDS011;56046;47.270;11.368;2023-06-26T06:01:21;11.93;;;6.87;;
68989;SDS011;56046;47.270;11.368;2023-06-26T06:03:46;11.67;;;6.90;;
68989;SDS011;56046;47.270;11.368;2023-06-26T06:06:12;12.23;;;7.00;;
68989;SDS011;56046;47.270;11.368;2023-06-26T06:08:37;13.50;;;7.13;;
68989;SDS011;56046;47.270;11.368;2023-06-26T06:11:02;13.03;;;7.10;;
68989;SDS011;56046;47.270;11.368;2023-06-26T06:13:28;11.90;;;7.40;;
68989;SDS011;56046;47.270;11.368;2023-06-26T06:15:53;12.17;;;7.50;;
68989;SDS011;56046;47.270;11.368;2023-06-26T06:18:18;14.60;;;7.20;;
68989;SDS011;56046;47.270;11.368;2023-06-26T06:20:44;12.57;;;7.50;;
68989;SDS011;56046;47.270;11.368;2023-06-26T06:23:10;11.83;;;6.77;;
68989;SDS011;56046;47.270;11.368;2023-06-26T06:25:35;12.30;;;7.00;;
68989;SDS011;56046;47.270;11.368;2023-06-26T06:28:00;11.85;;;6.88;;
68989;SDS011;56046;47.270;11.368;2023-06-26T06:30:26;13.10;;;7.33;;
68989;SDS011;56046;47.270;11.368;2023-06-26T06:32:52;12.33;;;6.97;;
68989;SDS011;56046;47.270;11.368;2023-06-26T06:35:18;11.75;;;6.88;;
68989;SDS011;56046;47.270;11.368;2023-06-26T06:37:43;12.50;;;7.23;;
68989;SDS011;56046;47.270;11.368;2023-06-26T06:40:09;13.80;;;7.20;;
68989;SDS011;56046;47.270;11.368;2023-06-26T06:42:34;13.27;;;7.70;;
68989;SDS011;56046;47.270;11.368;2023-06-26T06:45:03;12.15;;;7.65;;
68989;SDS011;56046;47.270;11.368;2023-06-26T06:47:29;13.48;;;7.60;;
68989;SDS011;56046;47.270;11.368;2023-06-26T06:49:54;14.93;;;8.47;;
68989;SDS011;56046;47.270;11.368;2023-06-26T06:52:20;15.87;;;8.43;;
68989;SDS011;56046;47.270;11.368;2023-06-26T06:54:52;13.43;;;7.43;;
68989;SDS011;56046;47.270;11.368;2023-06-26T06:57:18;11.20;;;7.13;;
68989;SDS011;56046;47.270;11.368;2023-06-26T06:59:43;11.25;;;6.95;;
68989;SDS011;56046;47.270;11.368;2023-06-26T07:02:08;11.20;;;6.67;;
68989;SDS011;56046;47.270;11.368;2023-06-26T07:04:34;11.83;;;6.43;;
68989;SDS011;56046;47.270;11.368;2023-06-26T07:06:59;11.00;;;6.80;;
68989;SDS011;56046;47.270;11.368;2023-06-26T07:09:24;11.00;;;6.47;;
68989;SDS011;56046;47.270;11.368;2023-06-26T07:11:49;10.93;;;6.67;;
68989;SDS011;56046;47.270;11.368;2023-06-26T07:14:14;11.47;;;6.97;;
68989;SDS011;56046;47.270;11.368;2023-06-26T07:16:40;10.33;;;6.67;;
68989;SDS011;56046;47.270;11.368;2023-06-26T07:19:05;10.67;;;6.17;;
68989;SDS011;56046;47.270;11.368;2023-06-26T07:21:31;9.50;;;6.32;;
68989;SDS011;56046;47.270;11.368;2023-06-26T07:23:56;9.40;;;6.60;;
68989;SDS011;56046;47.270;11.368;2023-06-26T07:26:21;11.17;;;6.63;;
68989;SDS011;56046;47.270;11.368;2023-06-26T07:28:47;12.10;;;6.70;;
68989;SDS011;56046;47.270;11.368;2023-06-26T07:31:13;18.85;;;6.25;;
68989;SDS011;56046;47.270;11.368;2023-06-26T07:33:39;12.57;;;6.37;;
68989;SDS011;56046;47.270;11.368;2023-06-26T07:36:05;10.48;;;6.30;;
68989;SDS011;56046;47.270;11.368;2023-06-26T07:38:30;10.93;;;6.03;;
68989;SDS011;56046;47.270;11.368;2023-06-26T07:40:55;9.73;;;6.23;;
68989;SDS011;56046;47.270;11.368;2023-06-26T07:43:21;11.30;;;6.30;;
68989;SDS011;56046;47.270;11.368;2023-06-26T07:45:47;12.83;;;6.80;;
68989;SDS011;56046;47.270;11.368;2023-06-26T07:48:13;10.10;;;7.00;;
68989;SDS011;56046;47.270;11.368;2023-06-26T07:50:38;9.85;;;6.15;;
68989;SDS011;56046;47.270;11.368;2023-06-26T07:53:03;10.10;;;6.30;;
68989;SDS011;56046;47.270;11.368;2023-06-26T07:55:30;9.97;;;6.07;;
68989;SDS011;56046;47.270;11.368;2023-06-26T07:57:55;10.55;;;6.93;;
68989;SDS011;56046;47.270;11.368;2023-06-26T08:00:21;10.97;;;5.50;;
68989;SDS011;56046;47.270;11.368;2023-06-26T08:02:46;9.50;;;6.00;;
68989;SDS011;56046;47.270;11.368;2023-06-26T08:05:11;10.93;;;6.17;;
68989;SDS011;56046;47.270;11.368;2023-06-26T08:07:36;8.83;;;5.97;;
68989;SDS011;56046;47.270;11.368;2023-06-26T08:10:02;9.37;;;6.23;;
68989;SDS011;56046;47.270;11.368;2023-06-26T08:12:27;10.13;;;6.22;;
68989;SDS011;56046;47.270;11.368;2023-06-26T08:14:52;9.03;;;5.10;;
68989;SDS011;56046;47.270;11.368;2023-06-26T08:17:18;8.97;;;4.97;;
68989;SDS011;56046;47.270;11.368;2023-06-26T08:19:43;10.40;;;6.63;;
68989;SDS011;56046;47.270;11.368;2023-06-26T08:22:08;9.70;;;5.73;;
68989;SDS011;56046;47.270;11.368;2023-06-26T08:24:34;9.73;;;6.33;;
68989;SDS011;56046;47.270;11.368;2023-06-26T08:26:59;9.37;;;6.30;;
68989;SDS011;56046;47.270;11.368;2023-06-26T08:29:24;10.63;;;6.37;;
68989;SDS011;56046;47.270;11.368;2023-06-26T08:31:49;10.87;;;6.40;;
68989;SDS011;56046;47.270;11.368;2023-06-26T08:34:15;8.97;;;6.03;;
68989;SDS011;56046;47.270;11.368;2023-06-26T08:36:40;10.00;;;6.27;;
68989;SDS011;56046;47.270;11.368;2023-06-26T08:39:05;9.47;;;5.47;;
68989;SDS011;56046;47.270;11.368;2023-06-26T08:41:31;7.60;;;5.43;;
68989;SDS011;56046;47.270;11.368;2023-06-26T08:43:56;8.88;;;5.57;;
68989;SDS011;56046;47.270;11.368;2023-06-26T08:46:21;8.60;;;6.23;;
68989;SDS011;56046;47.270;11.368;2023-06-26T08:48:56;8.80;;;6.00;;
68989;SDS011;56046;47.270;11.368;2023-06-26T08:51:23;10.35;;;5.88;;
68989;SDS011;56046;47.270;11.368;2023-06-26T08:53:57;8.93;;;5.40;;
68989;SDS011;56046;47.270;11.368;2023-06-26T08:56:24;8.63;;;5.83;;
68989;SDS011;56046;47.270;11.368;2023-06-26T08:58:49;8.13;;;6.45;;
68989;SDS011;56046;47.270;11.368;2023-06-26T09:01:14;9.00;;;5.57;;
68989;SDS011;56046;47.270;11.368;2023-06-26T09:03:40;9.67;;;5.80;;
68989;SDS011;56046;47.270;11.368;2023-06-26T09:06:06;9.30;;;6.00;;
68989;SDS011;56046;47.270;11.368;2023-06-26T09:08:31;11.10;;;6.57;;
68989;SDS011;56046;47.270;11.368;2023-06-26T09:10:57;8.43;;;5.60;;
68989;SDS011;56046;47.270;11.368;2023-06-26T09:13:22;11.43;;;6.07;;
68989;SDS011;56046;47.270;11.368;2023-06-26T09:15:47;9.70;;;5.50;;
68989;SDS011;56046;47.270;11.368;2023-06-26T09:18:13;8.87;;;5.83;;
68989;SDS011;56046;47.270;11.368;2023-06-26T09:20:38;8.90;;;6.13;;
68989;SDS011;56046;47.270;11.368;2023-06-26T09:23:03;8.50;;;6.50;;
68989;SDS011;56046;47.270;11.368;2023-06-26T09:25:29;8.75;;;6.20;;
68989;SDS011;56046;47.270;11.368;2023-06-26T09:27:55;10.20;;;5.70;;
68989;SDS011;56046;47.270;11.368;2023-06-26T09:30:20;9.82;;;6.32;;
68989;SDS011;56046;47.270;11.368;2023-06-26T09:32:46;9.43;;;6.20;;
68989;SDS011;56046;47.270;11.368;2023-06-26T09:35:11;12.90;;;6.60;;
68989;SDS011;56046;47.270;11.368;2023-06-26T09:37:36;9.45;;;7.05;;
68989;SDS011;56046;47.270;11.368;2023-06-26T09:40:02;8.97;;;6.70;;
68989;SDS011;56046;47.270;11.368;2023-06-26T09:42:28;8.80;;;5.78;;
68989;SDS011;56046;47.270;11.368;2023-06-26T09:44:54;8.27;;;5.67;;
68989;SDS011;56046;47.270;11.368;2023-06-26T09:47:20;8.48;;;5.40;;
68989;SDS011;56046;47.270;11.368;2023-06-26T09:49:45;10.40;;;6.33;;
68989;SDS011;56046;47.270;11.368;2023-06-26T09:52:13;9.10;;;6.33;;
68989;SDS011;56046;47.270;11.368;2023-06-26T09:54:40;9.27;;;6.87;;
68989;SDS011;56046;47.270;11.368;2023-06-26T09:57:08;8.33;;;5.97;;
68989;SDS011;56046;47.270;11.368;2023-06-26T09:59:34;8.75;;;5.82;;
68989;SDS011;56046;47.270;11.368;2023-06-26T10:02:00;9.97;;;6.50;;
68989;SDS011;56046;47.270;11.368;2023-06-26T10:04:25;8.48;;;6.07;;
68989;SDS011;56046;47.270;11.368;2023-06-26T10:06:50;9.63;;;6.00;;
68989;SDS011;56046;47.270;11.368;2023-06-26T10:09:17;9.00;;;5.45;;
68989;SDS011;56046;47.270;11.368;2023-06-26T10:11:47;8.57;;;6.18;;
68989;SDS011;56046;47.270;11.368;2023-06-26T10:14:13;8.60;;;5.63;;
68989;SDS011;56046;47.270;11.368;2023-06-26T10:16:39;9.40;;;6.13;;
68989;SDS011;56046;47.270;11.368;2023-06-26T10:19:08;8.63;;;6.18;;
68989;SDS011;56046;47.270;11.368;2023-06-26T10:21:34;9.02;;;5.68;;
68989;SDS011;56046;47.270;11.368;2023-06-26T10:24:02;9.82;;;6.75;;
68989;SDS011;56046;47.270;11.368;2023-06-26T10:26:27;8.05;;;6.07;;
68989;SDS011;56046;47.270;11.368;2023-06-26T10:28:53;11.10;;;6.20;;
68989;SDS011;56046;47.270;11.368;2023-06-26T10:31:21;7.65;;;5.10;;
68989;SDS011;56046;47.270;11.368;2023-06-26T10:33:48;8.65;;;5.18;;
68989;SDS011;56046;47.270;11.368;2023-06-26T10:36:14;9.23;;;5.73;;
68989;SDS011;56046;47.270;11.368;2023-06-26T10:38:50;8.02;;;5.00;;
68989;SDS011;56046;47.270;11.368;2023-06-26T10:41:18;7.97;;;5.47;;
68989;SDS011;56046;47.270;11.368;2023-06-26T10:43:44;7.18;;;5.20;;
68989;SDS011;56046;47.270;11.368;2023-06-26T10:46:11;10.10;;;5.63;;
68989;SDS011;56046;47.270;11.368;2023-06-26T10:48:58;7.63;;;5.50;;
68989;SDS011;56046;47.270;11.368;2023-06-26T10:51:25;7.20;;;5.00;;
68989;SDS011;56046;47.270;11.368;2023-06-26T10:53:56;8.30;;;5.03;;
68989;SDS011;56046;47.270;11.368;2023-06-26T10:56:40;7.45;;;4.93;;
68989;SDS011;56046;47.270;11.368;2023-06-26T11:01:41;6.82;;;4.47;;
68989;SDS011;56046;47.270;11.368;2023-06-26T11:04:09;7.63;;;5.47;;
68989;SDS011;56046;47.270;11.368;2023-06-26T11:06:39;7.55;;;4.93;;
68989;SDS011;56046;47.270;11.368;2023-06-26T11:14:14;7.10;;;4.60;;
68989;SDS011;56046;47.270;11.368;2023-06-26T11:16:41;6.53;;;4.63;;
68989;SDS011;56046;47.270;11.368;2023-06-26T11:19:07;6.78;;;4.30;;
68989;SDS011;56046;47.270;11.368;2023-06-26T11:21:32;8.73;;;4.70;;
68989;SDS011;56046;47.270;11.368;2023-06-26T11:23:58;6.30;;;4.27;;
68989;SDS011;56046;47.270;11.368;2023-06-26T11:26:25;7.22;;;4.75;;
68989;SDS011;56046;47.270;11.368;2023-06-26T11:28:51;7.45;;;4.80;;
68989;SDS011;56046;47.270;11.368;2023-06-26T11:31:30;6.20;;;4.60;;
68989;SDS011;56046;47.270;11.368;2023-06-26T11:33:56;5.82;;;4.20;;
68989;SDS011;56046;47.270;11.368;2023-06-26T11:36:25;6.13;;;3.77;;
68989;SDS011;56046;47.270;11.368;2023-06-26T11:39:08;6.50;;;4.10;;
68989;SDS011;56046;47.270;11.368;2023-06-26T11:41:34;6.32;;;3.97;;
68989;SDS011;56046;47.270;11.368;2023-06-26T11:44:03;6.88;;;4.75;;
68989;SDS011;56046;47.270;11.368;2023-06-26T11:46:29;6.75;;;4.20;;
68989;SDS011;56046;47.270;11.368;2023-06-26T11:48:55;7.43;;;4.78;;
68989;SDS011;56046;47.270;11.368;2023-06-26T11:51:20;5.53;;;2.90;;
68989;SDS011;56046;47.270;11.368;2023-06-26T11:53:45;6.37;;;3.63;;
68989;SDS011;56046;47.270;11.368;2023-06-26T11:56:11;5.45;;;3.47;;
68989;SDS011;56046;47.270;11.368;2023-06-26T12:01:21;7.18;;;4.68;;
68989;SDS011;56046;47.270;11.368;2023-06-26T12:03:47;6.82;;;3.97;;
68989;SDS011;56046;47.270;11.368;2023-06-26T12:06:13;6.40;;;4.65;;
68989;SDS011;56046;47.270;11.368;2023-06-26T12:08:39;5.27;;;3.90;;
68989;SDS011;56046;47.270;11.368;2023-06-26T12:11:04;6.47;;;3.83;;
68989;SDS011;56046;47.270;11.368;2023-06-26T12:13:31;6.17;;;4.30;;
68989;SDS011;56046;47.270;11.368;2023-06-26T12:15:57;5.80;;;4.37;;
68989;SDS011;56046;47.270;11.368;2023-06-26T12:18:22;6.00;;;3.27;;
68989;SDS011;56046;47.270;11.368;2023-06-26T12:20:49;6.97;;;4.28;;
68989;SDS011;56046;47.270;11.368;2023-06-26T12:23:14;6.43;;;4.10;;
68989;SDS011;56046;47.270;11.368;2023-06-26T12:25:39;6.43;;;4.43;;
68989;SDS011;56046;47.270;11.368;2023-06-26T12:28:14;5.80;;;3.67;;
68989;SDS011;56046;47.270;11.368;2023-06-26T12:30:40;5.40;;;3.20;;
68989;SDS011;56046;47.270;11.368;2023-06-26T12:33:12;5.70;;;3.40;;
68989;SDS011;56046;47.270;11.368;2023-06-26T12:35:37;6.40;;;3.83;;
68989;SDS011;56046;47.270;11.368;2023-06-26T12:38:05;5.75;;;4.03;;
68989;SDS011;56046;47.270;11.368;2023-06-26T12:40:30;6.55;;;3.83;;
68989;SDS011;56046;47.270;11.368;2023-06-26T12:42:56;5.30;;;3.87;;
68989;SDS011;56046;47.270;11.368;2023-06-26T12:45:21;6.07;;;3.80;;
68989;SDS011;56046;47.270;11.368;2023-06-26T12:47:46;5.63;;;4.10;;
68989;SDS011;56046;47.270;11.368;2023-06-26T12:50:13;6.80;;;4.00;;
68989;SDS011;56046;47.270;11.368;2023-06-26T12:52:38;5.90;;;4.23;;
68989;SDS011;56046;47.270;11.368;2023-06-26T12:55:04;5.43;;;3.27;;
68989;SDS011;56046;47.270;11.368;2023-06-26T12:57:30;5.50;;;3.80;;
68989;SDS011;56046;47.270;11.368;2023-06-26T12:59:55;6.50;;;3.55;;
68989;SDS011;56046;47.270;11.368;2023-06-26T13:02:20;7.50;;;4.50;;
68989;SDS011;56046;47.270;11.368;2023-06-26T13:04:46;5.70;;;3.57;;
68989;SDS011;56046;47.270;11.368;2023-06-26T13:07:11;6.07;;;4.43;;
68989;SDS011;56046;47.270;11.368;2023-06-26T13:09:37;5.47;;;3.60;;
68989;SDS011;56046;47.270;11.368;2023-06-26T13:12:03;5.63;;;3.23;;
68989;SDS011;56046;47.270;11.368;2023-06-26T13:14:29;5.60;;;3.63;;
68989;SDS011;56046;47.270;11.368;2023-06-26T13:16:54;6.30;;;4.65;;
68989;SDS011;56046;47.270;11.368;2023-06-26T13:19:20;6.20;;;4.13;;
68989;SDS011;56046;47.270;11.368;2023-06-26T13:21:45;7.53;;;3.23;;
68989;SDS011;56046;47.270;11.368;2023-06-26T13:24:10;6.30;;;3.40;;
68989;SDS011;56046;47.270;11.368;2023-06-26T13:26:36;6.93;;;3.90;;
68989;SDS011;56046;47.270;11.368;2023-06-26T13:29:01;5.80;;;3.95;;
68989;SDS011;56046;47.270;11.368;2023-06-26T13:31:27;6.40;;;4.33;;
68989;SDS011;56046;47.270;11.368;2023-06-26T13:33:52;7.13;;;3.40;;
68989;SDS011;56046;47.270;11.368;2023-06-26T13:36:18;5.57;;;3.20;;
68989;SDS011;56046;47.270;11.368;2023-06-26T13:38:43;6.77;;;3.90;;
68989;SDS011;56046;47.270;11.368;2023-06-26T13:41:09;6.25;;;4.00;;
68989;SDS011;56046;47.270;11.368;2023-06-26T13:43:34;7.33;;;3.87;;
68989;SDS011;56046;47.270;11.368;2023-06-26T13:46:00;5.63;;;3.90;;
68989;SDS011;56046;47.270;11.368;2023-06-26T13:48:25;6.03;;;4.40;;
68989;SDS011;56046;47.270;11.368;2023-06-26T13:50:51;5.57;;;3.83;;
68989;SDS011;56046;47.270;11.368;2023-06-26T13:53:16;6.73;;;4.10;;
68989;SDS011;56046;47.270;11.368;2023-06-26T13:55:42;6.43;;;3.20;;
68989;SDS011;56046;47.270;11.368;2023-06-26T13:58:07;7.13;;;4.00;;
68989;SDS011;56046;47.270;11.368;2023-06-26T14:00:33;5.93;;;4.10;;
68989;SDS011;56046;47.270;11.368;2023-06-26T14:03:07;6.75;;;3.20;;
68989;SDS011;56046;47.270;11.368;2023-06-26T14:05:36;6.90;;;4.00;;
68989;SDS011;56046;47.270;11.368;2023-06-26T14:08:02;5.63;;;4.00;;
68989;SDS011;56046;47.270;11.368;2023-06-26T14:10:28;6.50;;;4.40;;
68989;SDS011;56046;47.270;11.368;2023-06-26T14:12:53;5.57;;;3.33;;
68989;SDS011;56046;47.270;11.368;2023-06-26T14:15:18;6.17;;;4.20;;
68989;SDS011;56046;47.270;11.368;2023-06-26T14:17:43;6.30;;;3.67;;
68989;SDS011;56046;47.270;11.368;2023-06-26T14:20:09;5.83;;;4.00;;
68989;SDS011;56046;47.270;11.368;2023-06-26T14:22:37;5.75;;;3.97;;
68989;SDS011;56046;47.270;11.368;2023-06-26T14:25:02;7.77;;;4.37;;
68989;SDS011;56046;47.270;11.368;2023-06-26T14:27:28;6.07;;;4.30;;
68989;SDS011;56046;47.270;11.368;2023-06-26T14:29:53;6.53;;;4.03;;
68989;SDS011;56046;47.270;11.368;2023-06-26T14:32:18;6.00;;;4.00;;
68989;SDS011;56046;47.270;11.368;2023-06-26T14:34:43;6.37;;;4.10;;
68989;SDS011;56046;47.270;11.368;2023-06-26T14:37:09;5.90;;;3.37;;